sensor_id;sensor_type;location;lat;lon;timestamp;P1;durP1;ratioP1;P2;durP2;ratioP2
43646;SDS011;56152;49.996;18.980;2023-04-01T00:00:57;4.95;;;1.92;;
43646;SDS011;56152;49.996;18.980;2023-04-01T00:06:05;4.05;;;2.45;;
43646;SDS011;56152;49.996;18.980;2023-04-01T00:11:08;4.63;;;2.40;;
43646;SDS011;56152;49.996;18.980;2023-04-01T00:16:11;6.20;;;2.72;;
43646;SDS011;56152;49.996;18.980;2023-04-01T00:21:16;5.00;;;2.00;;
43646;SDS011;56152;49.996;18.980;2023-04-01T00:26:21;3.75;;;2.20;;
43646;SDS011;56152;49.996;18.980;2023-04-01T00:31:25;3.60;;;2.08;;
43646;SDS011;56152;49.996;18.980;2023-04-01T00:36:29;6.07;;;2.47;;
43646;SDS011;56152;49.996;18.980;2023-04-01T00:41:31;3.83;;;2.10;;
43646;SDS011;56152;49.996;18.980;2023-04-01T00:46:35;6.57;;;2.22;;
43646;SDS011;56152;49.996;18.980;2023-04-01T00:51:40;6.28;;;2.08;;
43646;SDS011;56152;49.996;18.980;2023-04-01T00:56:46;4.32;;;2.47;;
43646;SDS011;56152;49.996;18.980;2023-04-01T01:01:56;4.78;;;2.60;;
43646;SDS011;56152;49.996;18.980;2023-04-01T01:07:03;4.65;;;2.35;;
43646;SDS011;56152;49.996;18.980;2023-04-01T01:12:15;4.88;;;2.05;;
43646;SDS011;56152;49.996;18.980;2023-04-01T01:17:26;3.57;;;2.43;;
43646;SDS011;56152;49.996;18.980;2023-04-01T01:22:47;7.38;;;2.90;;
43646;SDS011;56152;49.996;18.980;2023-04-01T01:28:02;4.10;;;2.33;;
43646;SDS011;56152;49.996;18.980;2023-04-01T01:33:32;5.43;;;2.40;;
43646;SDS011;56152;49.996;18.980;2023-04-01T01:38:44;4.88;;;2.38;;
43646;SDS011;56152;49.996;18.980;2023-04-01T01:43:50;4.20;;;2.55;;
43646;SDS011;56152;49.996;18.980;2023-04-01T01:48:56;4.50;;;2.70;;
43646;SDS011;56152;49.996;18.980;2023-04-01T01:54:05;9.32;;;3.47;;
43646;SDS011;56152;49.996;18.980;2023-04-01T01:59:08;5.78;;;3.38;;
43646;SDS011;56152;49.996;18.980;2023-04-01T02:04:13;7.18;;;2.95;;
43646;SDS011;56152;49.996;18.980;2023-04-01T02:09:19;7.03;;;3.15;;
43646;SDS011;56152;49.996;18.980;2023-04-01T02:14:22;7.55;;;2.90;;
43646;SDS011;56152;49.996;18.980;2023-04-01T02:19:30;3.38;;;2.35;;
43646;SDS011;56152;49.996;18.980;2023-04-01T02:24:36;7.32;;;2.67;;
43646;SDS011;56152;49.996;18.980;2023-04-01T02:29:42;9.02;;;3.03;;
43646;SDS011;56152;49.996;18.980;2023-04-01T02:34:45;7.28;;;2.83;;
43646;SDS011;56152;49.996;18.980;2023-04-01T02:39:50;7.18;;;2.97;;
43646;SDS011;56152;49.996;18.980;2023-04-01T02:44:54;7.00;;;3.17;;
43646;SDS011;56152;49.996;18.980;2023-04-01T02:49:59;5.82;;;2.88;;
43646;SDS011;56152;49.996;18.980;2023-04-01T02:55:04;7.85;;;2.78;;
43646;SDS011;56152;49.996;18.980;2023-04-01T03:00:07;5.25;;;2.47;;
43646;SDS011;56152;49.996;18.980;2023-04-01T03:05:14;5.15;;;2.60;;
43646;SDS011;56152;49.996;18.980;2023-04-01T03:10:19;7.90;;;3.00;;
43646;SDS011;56152;49.996;18.980;2023-04-01T03:15:23;9.10;;;2.80;;
43646;SDS011;56152;49.996;18.980;2023-04-01T03:20:26;5.07;;;2.55;;
43646;SDS011;56152;49.996;18.980;2023-04-01T03:25:31;7.00;;;2.70;;
43646;SDS011;56152;49.996;18.980;2023-04-01T03:30:33;7.78;;;3.00;;
43646;SDS011;56152;49.996;18.980;2023-04-01T03:35:36;5.78;;;3.17;;
43646;SDS011;56152;49.996;18.980;2023-04-01T03:40:43;4.00;;;3.25;;
43646;SDS011;56152;49.996;18.980;2023-04-01T03:45:46;7.43;;;3.55;;
43646;SDS011;56152;49.996;18.980;2023-04-01T03:50:51;7.10;;;2.45;;
43646;SDS011;56152;49.996;18.980;2023-04-01T03:55:55;5.88;;;2.42;;
43646;SDS011;56152;49.996;18.980;2023-04-01T04:00:57;6.38;;;2.45;;
43646;SDS011;56152;49.996;18.980;2023-04-01T04:06:00;5.70;;;2.78;;
43646;SDS011;56152;49.996;18.980;2023-04-01T04:11:04;7.07;;;2.97;;
43646;SDS011;56152;49.996;18.980;2023-04-01T04:16:07;8.93;;;3.65;;
43646;SDS011;56152;49.996;18.980;2023-04-01T04:21:11;7.75;;;3.72;;
43646;SDS011;56152;49.996;18.980;2023-04-01T04:26:16;6.50;;;2.95;;
43646;SDS011;56152;49.996;18.980;2023-04-01T04:31:18;5.53;;;2.88;;
43646;SDS011;56152;49.996;18.980;2023-04-01T04:36:22;8.43;;;3.05;;
43646;SDS011;56152;49.996;18.980;2023-04-01T04:41:26;5.65;;;2.70;;
43646;SDS011;56152;49.996;18.980;2023-04-01T04:46:28;5.57;;;3.28;;
43646;SDS011;56152;49.996;18.980;2023-04-01T04:51:38;6.90;;;3.00;;
43646;SDS011;56152;49.996;18.980;2023-04-01T04:56:44;9.88;;;3.03;;
43646;SDS011;56152;49.996;18.980;2023-04-01T05:01:47;10.18;;;3.63;;
43646;SDS011;56152;49.996;18.980;2023-04-01T05:06:50;4.80;;;2.55;;
43646;SDS011;56152;49.996;18.980;2023-04-01T05:11:58;6.68;;;2.70;;
43646;SDS011;56152;49.996;18.980;2023-04-01T05:17:05;7.50;;;2.38;;
43646;SDS011;56152;49.996;18.980;2023-04-01T05:22:10;3.30;;;1.77;;
43646;SDS011;56152;49.996;18.980;2023-04-01T05:27:15;6.03;;;2.75;;
43646;SDS011;56152;49.996;18.980;2023-04-01T05:32:17;9.00;;;3.40;;
43646;SDS011;56152;49.996;18.980;2023-04-01T05:37:19;5.57;;;2.83;;
43646;SDS011;56152;49.996;18.980;2023-04-01T05:42:24;4.22;;;2.55;;
43646;SDS011;56152;49.996;18.980;2023-04-01T05:47:27;6.00;;;3.00;;
43646;SDS011;56152;49.996;18.980;2023-04-01T05:52:30;5.38;;;2.50;;
43646;SDS011;56152;49.996;18.980;2023-04-01T05:57:37;4.32;;;2.45;;
43646;SDS011;56152;49.996;18.980;2023-04-01T06:02:39;7.65;;;3.00;;
43646;SDS011;56152;49.996;18.980;2023-04-01T06:07:41;5.93;;;3.00;;
43646;SDS011;56152;49.996;18.980;2023-04-01T06:12:57;6.18;;;2.80;;
43646;SDS011;56152;49.996;18.980;2023-04-01T06:18:23;6.95;;;2.95;;
43646;SDS011;56152;49.996;18.980;2023-04-01T06:23:47;7.13;;;2.53;;
43646;SDS011;56152;49.996;18.980;2023-04-01T06:34:27;11.57;;;3.60;;
43646;SDS011;56152;49.996;18.980;2023-04-01T06:40:02;10.93;;;3.00;;
43646;SDS011;56152;49.996;18.980;2023-04-01T06:45:28;5.20;;;2.53;;
43646;SDS011;56152;49.996;18.980;2023-04-01T06:50:38;4.57;;;2.67;;
43646;SDS011;56152;49.996;18.980;2023-04-01T06:55:47;6.50;;;2.35;;
43646;SDS011;56152;49.996;18.980;2023-04-01T07:00:56;6.93;;;2.83;;
43646;SDS011;56152;49.996;18.980;2023-04-01T07:06:01;11.00;;;3.50;;
43646;SDS011;56152;49.996;18.980;2023-04-01T07:11:09;6.80;;;3.58;;
43646;SDS011;56152;49.996;18.980;2023-04-01T07:16:15;6.90;;;3.00;;
43646;SDS011;56152;49.996;18.980;2023-04-01T07:21:22;5.13;;;2.42;;
43646;SDS011;56152;49.996;18.980;2023-04-01T07:26:33;4.75;;;2.80;;
43646;SDS011;56152;49.996;18.980;2023-04-01T07:37:09;6.07;;;3.03;;
43646;SDS011;56152;49.996;18.980;2023-04-01T07:42:16;6.68;;;3.00;;
43646;SDS011;56152;49.996;18.980;2023-04-01T07:47:32;6.75;;;2.65;;
43646;SDS011;56152;49.996;18.980;2023-04-01T07:52:44;4.85;;;2.28;;
43646;SDS011;56152;49.996;18.980;2023-04-01T07:57:57;6.70;;;3.40;;
43646;SDS011;56152;49.996;18.980;2023-04-01T08:08:41;6.33;;;2.73;;
43646;SDS011;56152;49.996;18.980;2023-04-01T08:13:53;6.32;;;2.85;;
43646;SDS011;56152;49.996;18.980;2023-04-01T08:19:10;6.50;;;3.38;;
43646;SDS011;56152;49.996;18.980;2023-04-01T08:24:21;7.95;;;3.30;;
43646;SDS011;56152;49.996;18.980;2023-04-01T08:29:30;4.90;;;3.15;;
43646;SDS011;56152;49.996;18.980;2023-04-01T08:34:48;8.95;;;3.40;;
43646;SDS011;56152;49.996;18.980;2023-04-01T08:39:58;7.00;;;3.90;;
43646;SDS011;56152;49.996;18.980;2023-04-01T08:45:11;6.72;;;3.80;;
43646;SDS011;56152;49.996;18.980;2023-04-01T08:56:00;11.45;;;4.13;;
43646;SDS011;56152;49.996;18.980;2023-04-01T09:06:37;9.02;;;4.07;;
43646;SDS011;56152;49.996;18.980;2023-04-01T09:17:45;11.13;;;4.20;;
43646;SDS011;56152;49.996;18.980;2023-04-01T09:23:18;6.00;;;2.75;;
43646;SDS011;56152;49.996;18.980;2023-04-01T09:28:38;7.82;;;3.42;;
43646;SDS011;56152;49.996;18.980;2023-04-01T09:33:55;8.00;;;4.35;;
43646;SDS011;56152;49.996;18.980;2023-04-01T09:39:29;9.35;;;3.83;;
43646;SDS011;56152;49.996;18.980;2023-04-01T09:44:39;8.63;;;4.05;;
43646;SDS011;56152;49.996;18.980;2023-04-01T09:49:59;7.60;;;3.40;;
43646;SDS011;56152;49.996;18.980;2023-04-01T09:55:24;4.43;;;2.47;;
43646;SDS011;56152;49.996;18.980;2023-04-01T10:01:06;4.63;;;3.00;;
43646;SDS011;56152;49.996;18.980;2023-04-01T10:06:44;10.00;;;3.95;;
43646;SDS011;56152;49.996;18.980;2023-04-01T10:12:24;5.35;;;2.70;;
43646;SDS011;56152;49.996;18.980;2023-04-01T10:40:36;6.40;;;3.60;;
43646;SDS011;56152;49.996;18.980;2023-04-01T10:51:59;4.22;;;2.55;;
43646;SDS011;56152;49.996;18.980;2023-04-01T10:57:45;5.10;;;2.33;;
43646;SDS011;56152;49.996;18.980;2023-04-01T11:03:21;3.90;;;2.33;;
43646;SDS011;56152;49.996;18.980;2023-04-01T11:20:36;4.50;;;2.72;;
43646;SDS011;56152;49.996;18.980;2023-04-01T11:26:04;5.15;;;2.55;;
43646;SDS011;56152;49.996;18.980;2023-04-01T11:36:51;4.78;;;2.83;;
43646;SDS011;56152;49.996;18.980;2023-04-01T11:42:02;4.85;;;2.70;;
43646;SDS011;56152;49.996;18.980;2023-04-01T11:47:19;7.85;;;4.05;;
43646;SDS011;56152;49.996;18.980;2023-04-01T11:58:31;4.88;;;3.35;;
43646;SDS011;56152;49.996;18.980;2023-04-01T12:03:57;11.00;;;6.47;;
43646;SDS011;56152;49.996;18.980;2023-04-01T12:09:19;12.48;;;6.28;;
43646;SDS011;56152;49.996;18.980;2023-04-01T12:14:32;48.90;;;24.95;;
43646;SDS011;56152;49.996;18.980;2023-04-01T12:19:41;39.33;;;23.23;;
43646;SDS011;56152;49.996;18.980;2023-04-01T12:24:49;15.15;;;8.30;;
43646;SDS011;56152;49.996;18.980;2023-04-01T12:35:21;3.95;;;2.80;;
43646;SDS011;56152;49.996;18.980;2023-04-01T12:40:35;6.22;;;3.97;;
43646;SDS011;56152;49.996;18.980;2023-04-01T12:45:53;5.77;;;2.97;;
43646;SDS011;56152;49.996;18.980;2023-04-01T12:51:20;4.80;;;3.05;;
43646;SDS011;56152;49.996;18.980;2023-04-01T12:56:39;6.47;;;3.28;;
43646;SDS011;56152;49.996;18.980;2023-04-01T13:01:58;4.53;;;2.95;;
43646;SDS011;56152;49.996;18.980;2023-04-01T13:07:30;4.15;;;2.70;;
43646;SDS011;56152;49.996;18.980;2023-04-01T13:12:54;5.65;;;3.42;;
43646;SDS011;56152;49.996;18.980;2023-04-01T13:18:10;8.13;;;3.88;;
43646;SDS011;56152;49.996;18.980;2023-04-01T13:23:27;4.82;;;2.78;;
43646;SDS011;56152;49.996;18.980;2023-04-01T13:28:47;4.75;;;2.45;;
43646;SDS011;56152;49.996;18.980;2023-04-01T13:33:59;6.00;;;2.15;;
43646;SDS011;56152;49.996;18.980;2023-04-01T13:39:20;6.35;;;2.80;;
43646;SDS011;56152;49.996;18.980;2023-04-01T13:44:35;7.13;;;3.40;;
43646;SDS011;56152;49.996;18.980;2023-04-01T14:01:00;5.50;;;3.60;;
43646;SDS011;56152;49.996;18.980;2023-04-01T14:06:12;6.32;;;3.78;;
43646;SDS011;56152;49.996;18.980;2023-04-01T14:11:21;4.45;;;3.13;;
43646;SDS011;56152;49.996;18.980;2023-04-01T14:16:42;6.40;;;3.67;;
43646;SDS011;56152;49.996;18.980;2023-04-01T14:22:13;6.55;;;4.13;;
43646;SDS011;56152;49.996;18.980;2023-04-01T14:27:27;6.82;;;4.22;;
43646;SDS011;56152;49.996;18.980;2023-04-01T14:32:40;6.10;;;3.90;;
43646;SDS011;56152;49.996;18.980;2023-04-01T14:38:02;6.35;;;3.70;;
43646;SDS011;56152;49.996;18.980;2023-04-01T14:43:29;9.15;;;5.03;;
43646;SDS011;56152;49.996;18.980;2023-04-01T14:48:57;8.02;;;5.00;;
43646;SDS011;56152;49.996;18.980;2023-04-01T14:54:08;6.32;;;3.75;;
43646;SDS011;56152;49.996;18.980;2023-04-01T14:59:26;7.13;;;4.35;;
43646;SDS011;56152;49.996;18.980;2023-04-01T15:10:00;8.90;;;4.13;;
43646;SDS011;56152;49.996;18.980;2023-04-01T15:15:15;11.85;;;5.97;;
43646;SDS011;56152;49.996;18.980;2023-04-01T15:20:29;7.40;;;5.45;;
43646;SDS011;56152;49.996;18.980;2023-04-01T15:25:43;11.93;;;5.75;;
43646;SDS011;56152;49.996;18.980;2023-04-01T15:30:54;7.30;;;3.88;;
43646;SDS011;56152;49.996;18.980;2023-04-01T15:36:04;10.57;;;5.25;;
43646;SDS011;56152;49.996;18.980;2023-04-01T15:41:20;20.77;;;8.95;;
43646;SDS011;56152;49.996;18.980;2023-04-01T15:46:36;13.18;;;5.13;;
43646;SDS011;56152;49.996;18.980;2023-04-01T15:51:52;7.28;;;3.75;;
43646;SDS011;56152;49.996;18.980;2023-04-01T15:57:18;8.48;;;4.55;;
43646;SDS011;56152;49.996;18.980;2023-04-01T16:02:29;10.60;;;4.97;;
43646;SDS011;56152;49.996;18.980;2023-04-01T16:07:40;8.02;;;4.75;;
43646;SDS011;56152;49.996;18.980;2023-04-01T16:12:56;5.72;;;3.15;;
43646;SDS011;56152;49.996;18.980;2023-04-01T16:18:18;4.90;;;3.25;;
43646;SDS011;56152;49.996;18.980;2023-04-01T16:23:37;8.13;;;3.72;;
43646;SDS011;56152;49.996;18.980;2023-04-01T16:28:53;7.03;;;3.55;;
43646;SDS011;56152;49.996;18.980;2023-04-01T16:34:00;6.88;;;4.80;;
43646;SDS011;56152;49.996;18.980;2023-04-01T16:39:22;6.32;;;3.63;;
43646;SDS011;56152;49.996;18.980;2023-04-01T16:44:41;15.07;;;12.13;;
43646;SDS011;56152;49.996;18.980;2023-04-01T16:49:54;30.30;;;23.15;;
43646;SDS011;56152;49.996;18.980;2023-04-01T16:55:12;13.20;;;7.95;;
43646;SDS011;56152;49.996;18.980;2023-04-01T17:05:44;15.13;;;8.25;;
43646;SDS011;56152;49.996;18.980;2023-04-01T17:16:17;15.77;;;10.82;;
43646;SDS011;56152;49.996;18.980;2023-04-01T17:21:54;13.93;;;9.32;;
43646;SDS011;56152;49.996;18.980;2023-04-01T17:27:04;11.95;;;7.75;;
43646;SDS011;56152;49.996;18.980;2023-04-01T17:32:19;33.45;;;18.77;;
43646;SDS011;56152;49.996;18.980;2023-04-01T17:37:40;74.22;;;35.35;;
43646;SDS011;56152;49.996;18.980;2023-04-01T17:42:52;120.20;;;55.60;;
43646;SDS011;56152;49.996;18.980;2023-04-01T17:48:08;75.15;;;38.42;;
43646;SDS011;56152;49.996;18.980;2023-04-01T17:53:28;46.37;;;26.43;;
43646;SDS011;56152;49.996;18.980;2023-04-01T17:58:42;36.13;;;20.70;;
43646;SDS011;56152;49.996;18.980;2023-04-01T18:04:03;32.83;;;19.23;;
43646;SDS011;56152;49.996;18.980;2023-04-01T18:09:17;46.65;;;27.23;;
43646;SDS011;56152;49.996;18.980;2023-04-01T18:14:44;49.17;;;26.60;;
43646;SDS011;56152;49.996;18.980;2023-04-01T18:20:05;57.35;;;34.22;;
43646;SDS011;56152;49.996;18.980;2023-04-01T18:25:30;31.30;;;19.92;;
43646;SDS011;56152;49.996;18.980;2023-04-01T18:30:40;30.73;;;17.45;;
43646;SDS011;56152;49.996;18.980;2023-04-01T18:41:22;24.60;;;15.15;;
43646;SDS011;56152;49.996;18.980;2023-04-01T18:46:36;20.80;;;13.80;;
43646;SDS011;56152;49.996;18.980;2023-04-01T18:51:50;36.90;;;18.15;;
43646;SDS011;56152;49.996;18.980;2023-04-01T18:57:04;46.65;;;20.25;;
43646;SDS011;56152;49.996;18.980;2023-04-01T19:02:19;22.33;;;12.43;;
43646;SDS011;56152;49.996;18.980;2023-04-01T19:13:16;18.75;;;10.82;;
43646;SDS011;56152;49.996;18.980;2023-04-01T19:23:57;19.00;;;9.18;;
43646;SDS011;56152;49.996;18.980;2023-04-01T19:29:26;19.80;;;10.38;;
43646;SDS011;56152;49.996;18.980;2023-04-01T19:34:42;55.38;;;23.42;;
43646;SDS011;56152;49.996;18.980;2023-04-01T19:40:00;32.63;;;15.90;;
43646;SDS011;56152;49.996;18.980;2023-04-01T19:45:23;27.35;;;14.50;;
43646;SDS011;56152;49.996;18.980;2023-04-01T19:50:37;22.00;;;12.55;;
43646;SDS011;56152;49.996;18.980;2023-04-01T19:55:47;28.42;;;15.40;;
43646;SDS011;56152;49.996;18.980;2023-04-01T20:00:56;20.35;;;12.70;;
43646;SDS011;56152;49.996;18.980;2023-04-01T20:06:06;23.30;;;13.30;;
43646;SDS011;56152;49.996;18.980;2023-04-01T20:11:30;21.73;;;13.05;;
43646;SDS011;56152;49.996;18.980;2023-04-01T20:16:47;12.90;;;8.57;;
43646;SDS011;56152;49.996;18.980;2023-04-01T20:21:55;17.60;;;12.13;;
43646;SDS011;56152;49.996;18.980;2023-04-01T20:27:05;22.30;;;13.23;;
43646;SDS011;56152;49.996;18.980;2023-04-01T20:32:25;32.75;;;19.25;;
43646;SDS011;56152;49.996;18.980;2023-04-01T20:37:44;22.77;;;13.30;;
43646;SDS011;56152;49.996;18.980;2023-04-01T20:54:16;22.17;;;14.48;;
43646;SDS011;56152;49.996;18.980;2023-04-01T21:10:34;27.05;;;16.20;;
43646;SDS011;56152;49.996;18.980;2023-04-01T21:15:53;32.88;;;20.23;;
43646;SDS011;56152;49.996;18.980;2023-04-01T21:21:17;25.50;;;16.48;;
43646;SDS011;56152;49.996;18.980;2023-04-01T21:26:51;32.28;;;17.67;;
43646;SDS011;56152;49.996;18.980;2023-04-01T21:32:08;32.00;;;21.50;;
43646;SDS011;56152;49.996;18.980;2023-04-01T21:37:46;31.08;;;19.08;;
43646;SDS011;56152;49.996;18.980;2023-04-01T21:43:01;37.78;;;22.00;;
43646;SDS011;56152;49.996;18.980;2023-04-01T21:53:52;42.83;;;21.92;;
43646;SDS011;56152;49.996;18.980;2023-04-01T22:05:02;44.85;;;23.70;;
43646;SDS011;56152;49.996;18.980;2023-04-01T22:10:15;43.50;;;25.48;;
43646;SDS011;56152;49.996;18.980;2023-04-01T22:15:40;38.92;;;23.95;;
43646;SDS011;56152;49.996;18.980;2023-04-01T22:20:54;66.97;;;35.15;;
43646;SDS011;56152;49.996;18.980;2023-04-01T22:26:05;53.65;;;31.95;;
43646;SDS011;56152;49.996;18.980;2023-04-01T22:31:18;59.20;;;34.72;;
43646;SDS011;56152;49.996;18.980;2023-04-01T22:36:28;60.50;;;33.75;;
43646;SDS011;56152;49.996;18.980;2023-04-01T22:41:42;44.45;;;28.65;;
43646;SDS011;56152;49.996;18.980;2023-04-01T22:46:54;45.10;;;28.33;;
43646;SDS011;56152;49.996;18.980;2023-04-01T22:52:05;47.38;;;27.08;;
43646;SDS011;56152;49.996;18.980;2023-04-01T22:57:15;44.17;;;26.00;;
43646;SDS011;56152;49.996;18.980;2023-04-01T23:02:34;51.30;;;29.80;;
43646;SDS011;56152;49.996;18.980;2023-04-01T23:07:44;58.90;;;35.90;;
43646;SDS011;56152;49.996;18.980;2023-04-01T23:12:53;87.10;;;49.65;;
43646;SDS011;56152;49.996;18.980;2023-04-01T23:23:29;93.90;;;51.97;;
43646;SDS011;56152;49.996;18.980;2023-04-01T23:28:43;69.57;;;41.13;;
43646;SDS011;56152;49.996;18.980;2023-04-01T23:33:49;61.17;;;39.15;;
43646;SDS011;56152;49.996;18.980;2023-04-01T23:39:17;60.83;;;36.45;;
43646;SDS011;56152;49.996;18.980;2023-04-01T23:44:24;55.17;;;31.85;;
43646;SDS011;56152;49.996;18.980;2023-04-01T23:49:30;54.17;;;34.17;;
43646;SDS011;56152;49.996;18.980;2023-04-01T23:54:55;49.28;;;33.78;;
